Time;durP1;ratioP1;P1;durP2;ratioP2;P2;SDS_P1;SDS_P2;PMS_P1;PMS_P2;Temp;Humidity;BMP_temperature;BMP_pressure;BME280_temperature;BME280_humidity;BME280_pressure;Samples;Min_cycle;Max_cycle;Signal;HPM_P1;HPM_P2
2022/06/25 00:02:00;;;;;;;0.65;0.20;;;;;;;;;;5056933;28;20083;-74
2022/06/25 00:07:11;;;;;;;0.10;0.10;;;;;;;;;;5055775;28;20114;-75
2022/06/25 00:09:37;;;;;;;0.22;0.20;;;;;;;;;;5056921;28;20037;-75
2022/06/25 00:14:49;;;;;;;0.10;0.10;;;;;;;;;;5055789;28;20087;-74
2022/06/25 00:17:15;;;;;;;0.20;0.20;;;;;;;;;;5055975;28;20407;-74
2022/06/25 00:19:41;;;;;;;0.10;0.10;;;;;;;;;;5056493;28;20067;-74
2022/06/25 00:22:07;;;;;;;0.10;0.10;;;;;;;;;;5055741;28;20048;-74
2022/06/25 00:24:33;;;;;;;0.10;0.10;;;;;;;;;;5056137;28;20044;-75
2022/06/25 00:26:59;;;;;;;0.10;0.10;;;;;;;;;;5055810;28;20579;-75
2022/06/25 00:29:25;;;;;;;0.10;0.10;;;;;;;;;;5056046;28;20071;-74
2022/06/25 00:31:51;;;;;;;0.10;0.10;;;;;;;;;;5056502;28;20052;-75
2022/06/25 00:34:18;;;;;;;0.10;0.10;;;;;;;;;;5055687;28;20073;-75
2022/06/25 00:36:44;;;;;;;0.10;0.10;;;;;;;;;;5055724;28;20049;-75
2022/06/25 00:39:10;;;;;;;0.10;0.10;;;;;;;;;;5055858;28;20515;-74
2022/06/25 00:41:36;;;;;;;0.10;0.10;;;;;;;;;;5055530;28;20045;-75
2022/06/25 00:44:08;;;;;;;0.10;0.10;;;;;;;;;;5055756;28;20503;-75
2022/06/25 00:46:35;;;;;;;0.45;0.30;;;;;;;;;;5055402;28;20555;-75
2022/06/25 00:49:02;;;;;;;0.22;0.22;;;;;;;;;;5055568;28;20122;-75
2022/06/25 00:51:30;;;;;;;0.25;0.25;;;;;;;;;;5055321;28;20055;-74
2022/06/25 00:53:58;;;;;;;0.10;0.10;;;;;;;;;;5055127;28;20044;-74
2022/06/25 00:56:25;;;;;;;0.22;0.22;;;;;;;;;;5054205;28;20403;-75
2022/06/25 00:58:52;;;;;;;0.10;0.10;;;;;;;;;;5055152;28;20033;-74
2022/06/25 01:01:18;;;;;;;0.10;0.10;;;;;;;;;;5055219;28;20053;-75
2022/06/25 01:03:44;;;;;;;0.20;0.20;;;;;;;;;;5055524;28;20098;-74
2022/06/25 01:06:10;;;;;;;0.10;0.10;;;;;;;;;;5054959;28;20048;-75
2022/06/25 01:08:37;;;;;;;0.10;0.10;;;;;;;;;;5054279;28;20041;-74
2022/06/25 01:11:03;;;;;;;0.20;0.20;;;;;;;;;;5055522;28;20052;-74
2022/06/25 01:13:29;;;;;;;0.20;0.20;;;;;;;;;;5054931;28;20135;-74
2022/06/25 01:15:56;;;;;;;0.10;0.10;;;;;;;;;;5054884;28;20049;-74
2022/06/25 01:18:22;;;;;;;0.20;0.20;;;;;;;;;;5055270;28;20124;-74
2022/06/25 01:20:49;;;;;;;0.70;0.65;;;;;;;;;;5055144;28;20041;-74
2022/06/25 01:23:15;;;;;;;0.30;0.30;;;;;;;;;;5054851;28;20053;-74
2022/06/25 01:25:41;;;;;;;0.10;0.10;;;;;;;;;;5054743;28;20076;-74
2022/06/25 01:28:08;;;;;;;0.10;0.10;;;;;;;;;;5055186;28;20037;-74
2022/06/25 01:30:34;;;;;;;0.10;0.10;;;;;;;;;;5054626;28;20041;-74
2022/06/25 01:33:00;;;;;;;0.10;0.10;;;;;;;;;;5054835;28;20045;-74
2022/06/25 01:35:26;;;;;;;0.10;0.10;;;;;;;;;;5054861;28;20045;-74
2022/06/25 01:37:53;;;;;;;0.13;0.13;;;;;;;;;;5054482;28;20040;-74
2022/06/25 01:40:19;;;;;;;0.10;0.10;;;;;;;;;;5054740;28;20051;-74
2022/06/25 01:43:01;;;;;;;0.10;0.10;;;;;;;;;;5054655;28;20075;-74
2022/06/25 01:45:27;;;;;;;0.10;0.10;;;;;;;;;;5054385;28;20087;-74
2022/06/25 01:47:53;;;;;;;0.10;0.10;;;;;;;;;;5054385;28;20060;-74
2022/06/25 01:50:19;;;;;;;0.10;0.10;;;;;;;;;;5054625;28;20044;-74
2022/06/25 01:52:48;;;;;;;0.10;0.10;;;;;;;;;;5054450;28;20049;-74
2022/06/25 01:55:15;;;;;;;0.47;0.20;;;;;;;;;;5054522;28;20049;-74
2022/06/25 01:57:41;;;;;;;0.20;0.20;;;;;;;;;;5054558;28;20041;-74
2022/06/25 02:00:10;;;;;;;0.13;0.13;;;;;;;;;;5055039;28;20067;-74
2022/06/25 02:02:37;;;;;;;0.10;0.10;;;;;;;;;;5054678;28;20049;-74
2022/06/25 02:05:04;;;;;;;0.10;0.10;;;;;;;;;;5054638;28;20128;-74
2022/06/25 02:07:30;;;;;;;0.10;0.10;;;;;;;;;;5054249;28;20484;-74
2022/06/25 02:09:56;;;;;;;0.30;0.30;;;;;;;;;;5054696;28;20044;-74
2022/06/25 02:12:22;;;;;;;0.38;0.13;;;;;;;;;;5055078;28;20464;-74
2022/06/25 02:14:48;;;;;;;0.10;0.10;;;;;;;;;;5054367;28;20418;-74
2022/06/25 02:17:15;;;;;;;0.17;0.17;;;;;;;;;;5054334;28;20044;-74
2022/06/25 02:19:41;;;;;;;0.10;0.10;;;;;;;;;;5058469;28;20029;-75
2022/06/25 02:22:07;;;;;;;0.10;0.10;;;;;;;;;;5058488;28;20580;-74
2022/06/25 02:24:33;;;;;;;0.10;0.10;;;;;;;;;;5058768;28;20044;-74
2022/06/25 02:26:59;;;;;;;0.10;0.10;;;;;;;;;;5058317;28;20376;-74
2022/06/25 02:29:25;;;;;;;0.10;0.10;;;;;;;;;;5058248;28;20109;-75
2022/06/25 02:31:51;;;;;;;0.20;0.20;;;;;;;;;;5058520;28;20055;-74
2022/06/25 02:34:17;;;;;;;0.10;0.10;;;;;;;;;;5058243;28;20041;-74
2022/06/25 02:36:43;;;;;;;0.20;0.20;;;;;;;;;;5058447;28;20033;-74
2022/06/25 02:39:10;;;;;;;0.30;0.30;;;;;;;;;;5058439;28;20041;-74
2022/06/25 02:41:36;;;;;;;0.10;0.10;;;;;;;;;;5058617;28;20045;-74
2022/06/25 02:44:02;;;;;;;0.10;0.10;;;;;;;;;;5058052;28;20215;-74
2022/06/25 02:46:28;;;;;;;0.10;0.10;;;;;;;;;;5058304;28;20041;-74
2022/06/25 02:48:54;;;;;;;0.10;0.10;;;;;;;;;;5057929;28;20044;-74
2022/06/25 02:51:20;;;;;;;0.10;0.10;;;;;;;;;;5058164;28;20051;-74
2022/06/25 02:53:46;;;;;;;0.10;0.10;;;;;;;;;;5057727;28;20072;-74
2022/06/25 02:58:58;;;;;;;0.20;0.20;;;;;;;;;;5057540;28;20036;-74
2022/06/25 03:01:25;;;;;;;0.38;0.38;;;;;;;;;;5058188;28;20114;-74
2022/06/25 03:03:52;;;;;;;0.20;0.20;;;;;;;;;;5057430;28;20049;-74
2022/06/25 03:06:18;;;;;;;0.10;0.10;;;;;;;;;;5057634;28;20529;-74
2022/06/25 03:08:44;;;;;;;0.20;0.20;;;;;;;;;;5057414;28;20033;-74
2022/06/25 03:11:10;;;;;;;0.88;0.20;;;;;;;;;;5057260;28;20040;-74
2022/06/25 03:13:37;;;;;;;0.20;0.20;;;;;;;;;;5057640;28;20052;-74
2022/06/25 03:16:06;;;;;;;0.10;0.10;;;;;;;;;;5057391;28;20563;-74
2022/06/25 03:18:33;;;;;;;0.10;0.10;;;;;;;;;;5057390;28;20045;-74
2022/06/25 03:21:00;;;;;;;0.20;0.20;;;;;;;;;;5057135;28;20120;-74
2022/06/25 03:23:27;;;;;;;0.10;0.10;;;;;;;;;;5057326;28;20053;-74
2022/06/25 03:25:53;;;;;;;0.10;0.10;;;;;;;;;;5057547;28;20044;-74
2022/06/25 03:28:19;;;;;;;0.10;0.10;;;;;;;;;;5057225;28;20044;-74
2022/06/25 03:30:45;;;;;;;0.10;0.10;;;;;;;;;;5056255;28;20045;-74
2022/06/25 03:33:12;;;;;;;0.10;0.10;;;;;;;;;;5057047;28;20140;-74
2022/06/25 03:35:38;;;;;;;0.10;0.10;;;;;;;;;;5057392;28;20048;-74
2022/06/25 03:38:04;;;;;;;0.10;0.10;;;;;;;;;;5056624;28;20079;-74
2022/06/25 03:40:30;;;;;;;0.28;0.28;;;;;;;;;;5056995;28;20048;-74
2022/06/25 03:42:58;;;;;;;0.10;0.10;;;;;;;;;;5057306;28;20566;-74
2022/06/25 03:45:24;;;;;;;0.10;0.10;;;;;;;;;;5056925;28;20036;-74
2022/06/25 03:47:50;;;;;;;0.22;0.22;;;;;;;;;;5056572;28;20045;-74
2022/06/25 03:50:19;;;;;;;0.10;0.10;;;;;;;;;;5056821;28;20041;-74
2022/06/25 03:52:46;;;;;;;0.10;0.10;;;;;;;;;;5056429;28;20075;-74
2022/06/25 03:55:12;;;;;;;0.10;0.10;;;;;;;;;;5056695;28;20045;-74
2022/06/25 03:57:38;;;;;;;0.20;0.20;;;;;;;;;;5056641;28;20052;-74
2022/06/25 04:00:06;;;;;;;0.10;0.10;;;;;;;;;;5056299;28;20045;-74
2022/06/25 04:02:32;;;;;;;0.45;0.45;;;;;;;;;;5057099;28;20537;-74
2022/06/25 04:04:58;;;;;;;0.10;0.10;;;;;;;;;;5056829;28;20488;-74
2022/06/25 04:07:24;;;;;;;0.10;0.10;;;;;;;;;;5056352;28;20040;-74
2022/06/25 04:09:51;;;;;;;0.10;0.10;;;;;;;;;;5056666;28;20036;-74
2022/06/25 04:12:17;;;;;;;0.10;0.10;;;;;;;;;;5057126;28;20048;-74
2022/06/25 04:14:44;;;;;;;0.10;0.10;;;;;;;;;;5056362;28;20132;-74
2022/06/25 04:17:10;;;;;;;0.10;0.10;;;;;;;;;;5056585;28;20048;-74
2022/06/25 04:19:42;;;;;;;0.10;0.10;;;;;;;;;;5056282;28;20070;-74
2022/06/25 04:22:11;;;;;;;0.15;0.15;;;;;;;;;;5056832;28;20063;-74
2022/06/25 04:24:38;;;;;;;0.10;0.10;;;;;;;;;;5056742;28;20127;-74
2022/06/25 04:27:05;;;;;;;0.10;0.10;;;;;;;;;;5056645;28;20045;-74
2022/06/25 04:29:31;;;;;;;0.10;0.10;;;;;;;;;;5056215;28;20488;-74
2022/06/25 04:31:57;;;;;;;0.10;0.10;;;;;;;;;;5056566;28;20048;-74
2022/06/25 04:34:24;;;;;;;0.10;0.10;;;;;;;;;;5056288;28;20045;-74
2022/06/25 04:36:50;;;;;;;0.10;0.10;;;;;;;;;;5056550;28;20072;-74
2022/06/25 04:39:16;;;;;;;0.38;0.38;;;;;;;;;;5055876;28;20036;-74
2022/06/25 04:41:43;;;;;;;0.10;0.10;;;;;;;;;;5055330;28;20488;-74
2022/06/25 04:44:09;;;;;;;0.10;0.10;;;;;;;;;;5056034;28;20036;-74
2022/06/25 04:46:36;;;;;;;0.10;0.10;;;;;;;;;;5056569;28;20127;-74
2022/06/25 04:49:03;;;;;;;0.10;0.10;;;;;;;;;;5055878;28;20029;-74
2022/06/25 04:51:29;;;;;;;0.10;0.10;;;;;;;;;;5055956;28;20044;-74
2022/06/25 04:53:55;;;;;;;0.15;0.15;;;;;;;;;;5055683;28;20032;-74
2022/06/25 04:56:25;;;;;;;0.10;0.10;;;;;;;;;;5056151;28;20071;-74
2022/06/25 04:58:51;;;;;;;0.17;0.17;;;;;;;;;;5055760;28;20032;-74
2022/06/25 05:01:17;;;;;;;0.10;0.10;;;;;;;;;;5055508;28;20049;-74
2022/06/25 05:03:43;;;;;;;0.20;0.20;;;;;;;;;;5055542;28;20049;-74
2022/06/25 05:06:09;;;;;;;0.10;0.10;;;;;;;;;;5055638;28;20041;-74
2022/06/25 05:08:36;;;;;;;0.15;0.15;;;;;;;;;;5055274;28;20039;-74
2022/06/25 05:11:02;;;;;;;0.10;0.10;;;;;;;;;;5055261;28;20124;-74
2022/06/25 05:13:29;;;;;;;0.20;0.20;;;;;;;;;;5055206;28;20047;-74
2022/06/25 05:15:55;;;;;;;0.10;0.10;;;;;;;;;;5055112;28;20123;-74
2022/06/25 05:18:21;;;;;;;0.20;0.20;;;;;;;;;;5055146;28;20041;-74
2022/06/25 05:20:48;;;;;;;0.30;0.30;;;;;;;;;;5055222;28;20067;-74
2022/06/25 05:23:14;;;;;;;0.20;0.20;;;;;;;;;;5054869;28;20040;-74
2022/06/25 05:25:40;;;;;;;0.10;0.10;;;;;;;;;;5055022;28;20041;-74
2022/06/25 05:28:06;;;;;;;0.30;0.30;;;;;;;;;;5055027;28;20037;-74
2022/06/25 05:30:33;;;;;;;0.10;0.10;;;;;;;;;;5055220;28;20052;-75
2022/06/25 05:32:59;;;;;;;0.10;0.10;;;;;;;;;;5055003;28;20044;-74
2022/06/25 05:35:26;;;;;;;0.32;0.32;;;;;;;;;;5054579;28;20075;-74
2022/06/25 05:37:52;;;;;;;0.17;0.17;;;;;;;;;;5054654;28;20029;-75
2022/06/25 05:40:19;;;;;;;0.10;0.10;;;;;;;;;;5054999;28;20036;-75
2022/06/25 05:42:45;;;;;;;0.10;0.10;;;;;;;;;;5054837;28;20124;-75
2022/06/25 05:45:11;;;;;;;0.32;0.32;;;;;;;;;;5054741;28;20670;-75
2022/06/25 05:47:37;;;;;;;0.20;0.20;;;;;;;;;;5054404;28;20044;-75
2022/06/25 05:50:04;;;;;;;0.10;0.10;;;;;;;;;;5054377;28;20068;-75
2022/06/25 05:52:30;;;;;;;0.43;0.20;;;;;;;;;;5054502;28;20049;-75
2022/06/25 05:54:56;;;;;;;0.20;0.20;;;;;;;;;;5054642;28;20483;-75
2022/06/25 05:57:22;;;;;;;0.28;0.28;;;;;;;;;;5054245;28;20067;-75
2022/06/25 05:59:48;;;;;;;0.30;0.30;;;;;;;;;;5054222;28;20053;-76
2022/06/25 06:02:14;;;;;;;0.20;0.20;;;;;;;;;;5054891;28;20075;-75
2022/06/25 06:04:42;;;;;;;0.43;0.30;;;;;;;;;;5054085;28;20052;-76
2022/06/25 06:07:08;;;;;;;0.25;0.25;;;;;;;;;;5054419;28;20041;-75
2022/06/25 06:09:34;;;;;;;0.50;0.50;;;;;;;;;;5054986;28;20075;-75
2022/06/25 06:12:00;;;;;;;0.30;0.30;;;;;;;;;;5055059;28;20037;-75
2022/06/25 06:14:27;;;;;;;0.20;0.20;;;;;;;;;;5054096;28;20041;-75
2022/06/25 06:16:53;;;;;;;0.30;0.30;;;;;;;;;;5053870;28;20365;-75
2022/06/25 06:19:19;;;;;;;0.30;0.30;;;;;;;;;;5054305;28;20073;-76
2022/06/25 06:21:45;;;;;;;0.20;0.20;;;;;;;;;;5054149;28;20045;-75
2022/06/25 06:24:11;;;;;;;0.32;0.32;;;;;;;;;;5054287;28;20041;-76
2022/06/25 06:26:37;;;;;;;0.20;0.20;;;;;;;;;;5054470;28;20079;-75
2022/06/25 06:29:04;;;;;;;0.30;0.30;;;;;;;;;;5053972;28;20045;-76
2022/06/25 06:31:30;;;;;;;0.45;0.30;;;;;;;;;;5054165;28;20033;-75
2022/06/25 06:33:57;;;;;;;0.32;0.32;;;;;;;;;;5054147;28;20053;-75
2022/06/25 06:36:23;;;;;;;0.20;0.20;;;;;;;;;;5052982;28;20108;-76
2022/06/25 06:38:49;;;;;;;0.20;0.20;;;;;;;;;;5052901;28;20118;-75
2022/06/25 06:41:17;;;;;;;0.20;0.20;;;;;;;;;;5053780;28;20095;-75
2022/06/25 06:43:43;;;;;;;0.20;0.20;;;;;;;;;;5053286;28;20048;-76
2022/06/25 06:46:10;;;;;;;0.30;0.30;;;;;;;;;;5053966;28;20056;-75
2022/06/25 06:48:36;;;;;;;0.40;0.40;;;;;;;;;;5053114;28;20079;-76
2022/06/25 06:51:02;;;;;;;0.22;0.22;;;;;;;;;;5054838;28;20120;-75
2022/06/25 06:53:28;;;;;;;0.20;0.20;;;;;;;;;;5064384;28;20451;-75
2022/06/25 06:55:55;;;;;;;0.30;0.30;;;;;;;;;;5055539;28;20098;-73
2022/06/25 06:58:21;;;;;;;0.30;0.30;;;;;;;;;;5056863;28;20041;-72
2022/06/25 07:00:47;;;;;;;0.30;0.30;;;;;;;;;;5054024;28;20521;-73
2022/06/25 07:03:13;;;;;;;0.20;0.20;;;;;;;;;;5050425;28;20416;-74
2022/06/25 07:05:39;;;;;;;0.20;0.20;;;;;;;;;;5057825;28;20526;-74
2022/06/25 07:08:06;;;;;;;0.20;0.20;;;;;;;;;;5054966;28;20096;-74
2022/06/25 07:10:32;;;;;;;0.30;0.30;;;;;;;;;;5056001;28;20041;-74
2022/06/25 07:12:58;;;;;;;0.30;0.30;;;;;;;;;;5056191;28;20523;-75
2022/06/25 07:15:24;;;;;;;0.20;0.20;;;;;;;;;;5057299;28;20098;-73
2022/06/25 07:17:50;;;;;;;0.35;0.35;;;;;;;;;;5057120;28;20068;-75
2022/06/25 07:20:16;;;;;;;0.45;0.45;;;;;;;;;;5055032;28;20492;-74
2022/06/25 07:22:43;;;;;;;0.20;0.20;;;;;;;;;;5055825;28;20044;-74
2022/06/25 07:25:09;;;;;;;0.20;0.20;;;;;;;;;;5056589;28;20041;-74
2022/06/25 07:27:35;;;;;;;0.30;0.30;;;;;;;;;;5057370;28;20130;-74
2022/06/25 07:30:01;;;;;;;0.28;0.28;;;;;;;;;;5056433;28;20044;-73
2022/06/25 07:32:27;;;;;;;0.30;0.30;;;;;;;;;;5056772;28;20057;-74
2022/06/25 07:34:54;;;;;;;0.20;0.20;;;;;;;;;;5055996;28;20491;-74
2022/06/25 07:37:20;;;;;;;0.25;0.25;;;;;;;;;;5056701;28;20041;-74
2022/06/25 07:39:46;;;;;;;0.63;0.52;;;;;;;;;;5056385;28;20032;-74
2022/06/25 07:42:12;;;;;;;0.20;0.20;;;;;;;;;;5056613;28;20045;-74
2022/06/25 07:44:38;;;;;;;0.20;0.20;;;;;;;;;;5056692;28;20120;-74
2022/06/25 07:47:05;;;;;;;0.20;0.20;;;;;;;;;;5056545;28;20041;-74
2022/06/25 07:51:56;;;;;;;0.20;0.20;;;;;;;;;;5056273;28;20518;-74
2022/06/25 07:52:17;;;;;;;0.20;0.20;;;;;;;;;;5055695;28;20059;-75
2022/06/25 07:54:43;;;;;;;0.20;0.20;;;;;;;;;;5057086;28;20155;-75
2022/06/25 07:57:09;;;;;;;0.20;0.20;;;;;;;;;;5055570;28;20585;-74
2022/06/25 07:59:35;;;;;;;0.90;0.32;;;;;;;;;;5055378;28;20160;-74
2022/06/25 08:02:02;;;;;;;0.28;0.28;;;;;;;;;;5054288;28;20105;-74
2022/06/25 08:04:28;;;;;;;1.00;0.32;;;;;;;;;;5053778;28;20079;-74
2022/06/25 08:06:56;;;;;;;0.30;0.30;;;;;;;;;;5056007;28;20032;-78
2022/06/25 08:09:22;;;;;;;0.10;0.10;;;;;;;;;;5055154;28;20124;-76
2022/06/25 08:11:49;;;;;;;0.20;0.20;;;;;;;;;;5055760;28;20045;-74
2022/06/25 08:14:15;;;;;;;0.20;0.20;;;;;;;;;;5056020;28;20044;-75
2022/06/25 08:16:41;;;;;;;0.10;0.10;;;;;;;;;;5075545;28;20039;-75
2022/06/25 08:19:07;;;;;;;0.28;0.28;;;;;;;;;;5075961;28;20475;-78
2022/06/25 08:21:34;;;;;;;0.20;0.20;;;;;;;;;;5063966;28;20041;-77
2022/06/25 08:24:00;;;;;;;0.20;0.20;;;;;;;;;;5055785;28;20064;-76
2022/06/25 08:26:26;;;;;;;0.30;0.30;;;;;;;;;;5604681;22;20423;-68
2022/06/25 08:28:52;;;;;;;0.45;0.45;;;;;;;;;;5019571;28;20052;-69
2022/06/25 08:31:18;;;;;;;0.32;0.32;;;;;;;;;;5010746;28;20053;-68
2022/06/25 08:33:45;;;;;;;0.57;0.57;;;;;;;;;;5013682;28;20050;-68
2022/06/25 08:36:11;;;;;;;0.43;0.43;;;;;;;;;;5013546;28;20045;-68
2022/06/25 08:38:37;;;;;;;0.20;0.20;;;;;;;;;;5012708;28;20041;-67
2022/06/25 08:41:03;;;;;;;1.02;0.35;;;;;;;;;;5016132;28;20480;-68
2022/06/25 08:43:30;;;;;;;0.20;0.20;;;;;;;;;;5016008;28;20041;-68
2022/06/25 08:45:57;;;;;;;0.20;0.20;;;;;;;;;;5015343;28;20055;-68
2022/06/25 08:48:25;;;;;;;0.20;0.20;;;;;;;;;;5004305;28;20035;-68
2022/06/25 08:50:52;;;;;;;0.20;0.20;;;;;;;;;;5013463;28;20399;-68
2022/06/25 08:53:19;;;;;;;0.13;0.13;;;;;;;;;;5015755;28;20046;-68
2022/06/25 08:55:46;;;;;;;0.10;0.10;;;;;;;;;;5015077;28;20115;-68
2022/06/25 08:58:13;;;;;;;0.20;0.20;;;;;;;;;;5014967;28;20065;-68
2022/06/25 09:00:43;;;;;;;0.38;0.38;;;;;;;;;;5006170;28;20077;-68
2022/06/25 09:03:10;;;;;;;0.28;0.28;;;;;;;;;;5011748;28;20053;-68
2022/06/25 09:05:37;;;;;;;0.10;0.10;;;;;;;;;;5012225;28;20125;-68
2022/06/25 09:08:05;;;;;;;0.20;0.20;;;;;;;;;;5014804;28;20208;-68
2022/06/25 09:10:31;;;;;;;0.20;0.20;;;;;;;;;;5014058;28;20065;-68
2022/06/25 09:12:59;;;;;;;0.20;0.20;;;;;;;;;;5014653;28;20508;-68
2022/06/25 09:15:27;;;;;;;0.20;0.20;;;;;;;;;;5015053;28;20515;-68
2022/06/25 09:17:54;;;;;;;0.20;0.20;;;;;;;;;;5016024;28;20038;-68
2022/06/25 09:20:21;;;;;;;0.13;0.13;;;;;;;;;;5014090;28;20050;-68
2022/06/25 09:22:57;;;;;;;1.17;0.28;;;;;;;;;;5014567;28;20072;-68
2022/06/25 09:25:25;;;;;;;0.13;0.13;;;;;;;;;;5025406;28;20041;-68
2022/06/25 09:27:51;;;;;;;0.28;0.28;;;;;;;;;;5015049;28;20057;-68
2022/06/25 09:30:21;;;;;;;0.10;0.10;;;;;;;;;;5008522;28;20062;-68
2022/06/25 09:32:54;;;;;;;0.20;0.20;;;;;;;;;;5011479;28;20074;-69
2022/06/25 09:35:29;;;;;;;0.20;0.20;;;;;;;;;;5012497;28;20049;-69
2022/06/25 09:38:00;;;;;;;0.30;0.30;;;;;;;;;;5014047;28;20524;-69
2022/06/25 09:40:26;;;;;;;0.25;0.25;;;;;;;;;;5014280;28;20042;-69
2022/06/25 09:42:53;;;;;;;0.45;0.45;;;;;;;;;;5014849;28;20057;-69
2022/06/25 09:45:19;;;;;;;0.32;0.32;;;;;;;;;;5014460;28;20472;-69
2022/06/25 09:47:45;;;;;;;0.45;0.45;;;;;;;;;;5014953;28;20038;-69
2022/06/25 09:50:15;;;;;;;0.40;0.40;;;;;;;;;;5014075;28;20125;-69
2022/06/25 09:52:59;;;;;;;0.38;0.38;;;;;;;;;;5025085;28;20099;-69
2022/06/25 09:55:26;;;;;;;0.38;0.38;;;;;;;;;;5034732;28;20163;-69
2022/06/25 09:57:53;;;;;;;0.20;0.20;;;;;;;;;;5034791;28;20515;-68
2022/06/25 10:00:19;;;;;;;0.30;0.30;;;;;;;;;;5034735;28;20113;-69
2022/06/25 10:02:47;;;;;;;0.28;0.28;;;;;;;;;;5017045;28;20056;-68
2022/06/25 10:05:14;;;;;;;0.30;0.30;;;;;;;;;;5013998;28;20550;-69
2022/06/25 10:08:04;;;;;;;0.30;0.30;;;;;;;;;;5013932;28;20053;-68
2022/06/25 10:10:40;;;;;;;0.20;0.20;;;;;;;;;;5014308;28;20038;-69
2022/06/25 10:13:07;;;;;;;0.30;0.30;;;;;;;;;;5014496;28;20133;-68
2022/06/25 10:15:33;;;;;;;0.20;0.20;;;;;;;;;;5014175;28;20100;-69
2022/06/25 10:18:04;;;;;;;0.30;0.30;;;;;;;;;;5014710;28;20095;-68
2022/06/25 10:20:31;;;;;;;0.35;0.35;;;;;;;;;;5014001;28;20042;-68
2022/06/25 10:22:58;;;;;;;0.68;0.50;;;;;;;;;;5014133;28;20049;-72
2022/06/25 10:25:25;;;;;;;0.35;0.35;;;;;;;;;;5014346;28;20037;-71
2022/06/25 10:28:03;;;;;;;0.20;0.20;;;;;;;;;;5013781;28;20058;-69
2022/06/25 10:30:56;;;;;;;0.30;0.30;;;;;;;;;;5013748;28;20054;-68
2022/06/25 10:33:29;;;;;;;0.20;0.20;;;;;;;;;;5013321;28;20132;-67
2022/06/25 10:35:56;;;;;;;0.40;0.40;;;;;;;;;;5013950;28;20037;-68
2022/06/25 10:38:24;;;;;;;0.30;0.30;;;;;;;;;;5014118;28;20518;-67
2022/06/25 10:40:51;;;;;;;0.50;0.50;;;;;;;;;;5017016;28;20199;-67
2022/06/25 10:43:36;;;;;;;1.60;0.50;;;;;;;;;;5016973;28;20044;-68
2022/06/25 10:46:22;;;;;;;0.20;0.20;;;;;;;;;;5015322;28;20046;-68
2022/06/25 10:48:57;;;;;;;0.30;0.30;;;;;;;;;;5004012;28;20456;-67
2022/06/25 10:51:50;;;;;;;0.30;0.30;;;;;;;;;;5017891;28;20072;-67
2022/06/25 10:54:25;;;;;;;0.20;0.20;;;;;;;;;;5016703;28;20118;-67
2022/06/25 10:56:52;;;;;;;0.20;0.20;;;;;;;;;;5017420;28;20045;-67
2022/06/25 10:59:45;;;;;;;0.50;0.50;;;;;;;;;;5017890;28;20037;-67
2022/06/25 11:02:12;;;;;;;0.52;0.52;;;;;;;;;;5017457;28;20048;-67
2022/06/25 11:04:38;;;;;;;0.20;0.20;;;;;;;;;;5017802;28;20033;-67
2022/06/25 11:07:18;;;;;;;0.30;0.30;;;;;;;;;;5016892;28;20042;-67
2022/06/25 11:09:54;;;;;;;0.20;0.20;;;;;;;;;;5017821;28;20121;-67
2022/06/25 11:12:22;;;;;;;0.20;0.20;;;;;;;;;;5017517;28;20049;-68
2022/06/25 11:14:58;;;;;;;0.20;0.20;;;;;;;;;;5016913;28;20038;-67
2022/06/25 11:17:24;;;;;;;0.20;0.20;;;;;;;;;;5016437;28;20078;-67
2022/06/25 11:19:50;;;;;;;0.52;0.50;;;;;;;;;;5017222;28;20038;-67
2022/06/25 11:22:16;;;;;;;0.25;0.25;;;;;;;;;;5017787;28;20150;-67
2022/06/25 11:30:14;;;;;;;0.30;0.30;;;;;;;;;;5016959;28;20121;-67
2022/06/25 11:32:44;;;;;;;0.30;0.30;;;;;;;;;;5017004;28;20571;-67
2022/06/25 11:35:10;;;;;;;0.28;0.28;;;;;;;;;;5018118;28;20145;-67
2022/06/25 11:37:37;;;;;;;0.20;0.20;;;;;;;;;;5012902;28;20563;-68
2022/06/25 11:40:12;;;;;;;0.10;0.10;;;;;;;;;;5012947;28;20037;-67
2022/06/25 11:42:39;;;;;;;0.10;0.10;;;;;;;;;;5003958;28;20482;-67
2022/06/25 11:45:06;;;;;;;0.20;0.20;;;;;;;;;;4994270;28;20046;-67
2022/06/25 11:47:32;;;;;;;0.40;0.40;;;;;;;;;;4994388;28;20050;-67
2022/06/25 11:49:58;;;;;;;0.30;0.30;;;;;;;;;;4993630;28;20050;-67
2022/06/25 11:52:25;;;;;;;0.20;0.20;;;;;;;;;;5014784;28;20050;-67
2022/06/25 11:54:51;;;;;;;0.20;0.20;;;;;;;;;;5016218;28;20060;-68
2022/06/25 11:57:24;;;;;;;0.20;0.20;;;;;;;;;;5015127;28;20519;-67
2022/06/25 11:59:51;;;;;;;0.20;0.20;;;;;;;;;;5015754;28;20045;-67
2022/06/25 12:02:18;;;;;;;0.20;0.20;;;;;;;;;;5016292;28;20053;-67
2022/06/25 12:04:47;;;;;;;0.10;0.10;;;;;;;;;;4998487;28;20038;-67
2022/06/25 12:07:20;;;;;;;0.20;0.20;;;;;;;;;;4993902;28;20048;-67
2022/06/25 12:09:46;;;;;;;0.20;0.20;;;;;;;;;;4995351;28;20045;-67
2022/06/25 12:12:12;;;;;;;0.22;0.22;;;;;;;;;;4995247;28;20069;-67
2022/06/25 12:14:40;;;;;;;0.20;0.20;;;;;;;;;;4996029;28;20084;-67
2022/06/25 12:17:07;;;;;;;0.38;0.38;;;;;;;;;;4996340;28;20043;-67
2022/06/25 12:19:59;;;;;;;0.38;0.38;;;;;;;;;;4996325;28;20065;-67
2022/06/25 12:22:26;;;;;;;0.40;0.40;;;;;;;;;;4995199;28;20058;-67
2022/06/25 12:24:56;;;;;;;0.30;0.30;;;;;;;;;;4995980;28;20030;-67
2022/06/25 12:27:22;;;;;;;0.20;0.20;;;;;;;;;;4996029;28;20109;-67
2022/06/25 12:29:49;;;;;;;0.15;0.15;;;;;;;;;;4995464;28;20034;-67
2022/06/25 12:32:15;;;;;;;0.28;0.28;;;;;;;;;;5001101;28;20057;-67
2022/06/25 12:34:51;;;;;;;0.20;0.20;;;;;;;;;;5004219;28;20365;-67
2022/06/25 12:37:30;;;;;;;2.20;0.38;;;;;;;;;;5014297;28;20049;-67
2022/06/25 12:39:59;;;;;;;0.20;0.20;;;;;;;;;;5007546;28;20595;-67
2022/06/25 12:42:28;;;;;;;0.30;0.30;;;;;;;;;;5005908;28;20069;-67
2022/06/25 12:44:55;;;;;;;0.20;0.20;;;;;;;;;;5004146;28;20093;-67
2022/06/25 12:47:21;;;;;;;0.20;0.20;;;;;;;;;;5003585;28;20125;-67
2022/06/25 12:49:54;;;;;;;0.20;0.20;;;;;;;;;;5005654;28;20501;-67
2022/06/25 12:52:26;;;;;;;0.20;0.20;;;;;;;;;;5004964;28;20061;-67
2022/06/25 12:54:56;;;;;;;0.20;0.20;;;;;;;;;;5004534;28;20056;-67
2022/06/25 12:57:25;;;;;;;0.20;0.20;;;;;;;;;;5002856;28;20056;-67
2022/06/25 12:59:51;;;;;;;0.20;0.20;;;;;;;;;;5004709;28;20050;-67
2022/06/25 13:02:18;;;;;;;0.10;0.10;;;;;;;;;;5005026;28;20069;-67
2022/06/25 13:04:44;;;;;;;0.10;0.10;;;;;;;;;;5001923;28;20034;-67
2022/06/25 13:07:14;;;;;;;0.20;0.20;;;;;;;;;;5004682;28;20042;-67
2022/06/25 13:09:41;;;;;;;0.20;0.20;;;;;;;;;;5007647;28;20132;-67
2022/06/25 13:12:08;;;;;;;0.20;0.20;;;;;;;;;;5005877;28;20124;-67
2022/06/25 13:14:34;;;;;;;0.20;0.20;;;;;;;;;;5005892;28;20101;-67
2022/06/25 13:17:01;;;;;;;0.20;0.20;;;;;;;;;;5003926;28;20663;-67
2022/06/25 13:19:27;;;;;;;0.20;0.20;;;;;;;;;;5005330;28;20042;-67
2022/06/25 13:21:53;;;;;;;0.20;0.20;;;;;;;;;;5004435;28;20042;-67
2022/06/25 13:24:20;;;;;;;0.20;0.20;;;;;;;;;;4999724;28;20053;-67
2022/06/25 13:26:46;;;;;;;0.30;0.30;;;;;;;;;;5004186;28;20115;-68
2022/06/25 13:29:12;;;;;;;0.20;0.20;;;;;;;;;;5002820;28;20042;-67
2022/06/25 13:31:38;;;;;;;0.30;0.30;;;;;;;;;;5006307;28;20042;-67
2022/06/25 13:34:04;;;;;;;0.20;0.20;;;;;;;;;;5014479;28;20524;-67
2022/06/25 13:36:30;;;;;;;0.20;0.20;;;;;;;;;;5013947;28;20033;-67
2022/06/25 13:38:57;;;;;;;0.20;0.20;;;;;;;;;;5014243;28;20041;-69
2022/06/25 13:41:23;;;;;;;0.20;0.20;;;;;;;;;;5013678;28;20092;-67
2022/06/25 13:43:53;;;;;;;0.22;0.22;;;;;;;;;;5013909;28;20053;-68
2022/06/25 13:46:20;;;;;;;0.28;0.28;;;;;;;;;;5014321;28;20041;-68
2022/06/25 13:48:46;;;;;;;0.20;0.20;;;;;;;;;;5014441;28;20100;-67
2022/06/25 13:51:12;;;;;;;0.20;0.20;;;;;;;;;;5013367;28;20069;-67
2022/06/25 13:53:39;;;;;;;1.17;0.22;;;;;;;;;;5022895;28;20049;-68
2022/06/25 13:56:05;;;;;;;0.22;0.22;;;;;;;;;;5030789;28;20435;-67
2022/06/25 13:58:31;;;;;;;0.20;0.20;;;;;;;;;;5033959;28;20041;-67
2022/06/25 14:00:58;;;;;;;0.20;0.20;;;;;;;;;;5015445;28;20034;-67
2022/06/25 14:03:25;;;;;;;0.20;0.20;;;;;;;;;;5013914;28;20050;-67
2022/06/25 14:05:51;;;;;;;0.20;0.20;;;;;;;;;;5020987;28;20041;-67
2022/06/25 14:08:18;;;;;;;0.20;0.20;;;;;;;;;;5013114;28;20538;-68
2022/06/25 14:10:44;;;;;;;0.20;0.20;;;;;;;;;;5011491;28;20038;-67
2022/06/25 14:13:10;;;;;;;0.20;0.20;;;;;;;;;;5013141;28;20062;-68
2022/06/25 14:15:36;;;;;;;0.20;0.20;;;;;;;;;;5012727;28;20095;-69
2022/06/25 14:18:03;;;;;;;0.20;0.20;;;;;;;;;;5012669;28;20041;-67
2022/06/25 14:20:29;;;;;;;0.47;0.47;;;;;;;;;;5013115;28;20041;-68
2022/06/25 14:22:56;;;;;;;0.20;0.20;;;;;;;;;;5013552;28;20041;-68
2022/06/25 14:25:24;;;;;;;0.20;0.20;;;;;;;;;;5013279;28;20050;-68
2022/06/25 14:27:54;;;;;;;0.20;0.20;;;;;;;;;;5011117;28;20057;-68
2022/06/25 14:30:20;;;;;;;0.20;0.20;;;;;;;;;;5017132;28;20042;-67
2022/06/25 14:32:47;;;;;;;0.25;0.25;;;;;;;;;;5002544;28;20049;-68
2022/06/25 14:35:13;;;;;;;0.20;0.20;;;;;;;;;;5013092;28;20041;-68
2022/06/25 14:43:09;;;;;;;0.30;0.30;;;;;;;;;;5011513;28;20586;-69
2022/06/25 14:45:35;;;;;;;0.30;0.30;;;;;;;;;;5010827;28;20052;-69
2022/06/25 14:48:02;;;;;;;0.30;0.30;;;;;;;;;;5012541;28;20081;-69
2022/06/25 14:50:28;;;;;;;0.20;0.20;;;;;;;;;;5013207;28;20038;-69
2022/06/25 14:52:55;;;;;;;0.45;0.45;;;;;;;;;;5012965;28;20057;-69
2022/06/25 14:55:21;;;;;;;0.20;0.20;;;;;;;;;;5010048;28;20057;-69
2022/06/25 14:57:47;;;;;;;0.52;0.50;;;;;;;;;;5008368;28;20076;-69
2022/06/25 15:00:14;;;;;;;0.22;0.22;;;;;;;;;;5008032;28;20053;-68
2022/06/25 15:02:40;;;;;;;0.75;0.30;;;;;;;;;;5003800;28;20042;-69
2022/06/25 15:05:07;;;;;;;0.20;0.20;;;;;;;;;;5012054;28;20053;-69